Aérodrome :
LOGIN :

S'inscrire | Disclaimer

   EN    FR    IT 

 










Légende :    VFR   VFR Marginal   IFR   IFR Intensif   IFR Très Intensif
Visi : 
Plafond : 
>= 8 km
>= 3000ft
5 à 8 km
1000 à 3000 ft
1500m à 5 km
500 à 1000 ft
800 à 1500m
200 à 500 ft
< 800m
< 200 ft
Symboles :   Orages  Brouillard  Fortes neiges  Fortes précipitations  Vent > 20 kt
SIGMETs :   Divers  Orages  Givrage  Turbulence  Onde Orograph.  Cendres Volcan.







- Altitude de l'aérodrome : 370 ft


EBBE - Beauvechain AB

DERNIER METAR :
  • 180555Z 20006KT 7000 -RA FEW008 SCT024 BKN070 16/16 Q1014 WHT WHT TEMPO GRN

METARs EXPIRÉS :
  • 180538Z 19005KT 7000 -RA FEW008 SCT024 BKN070 16/16 Q1014 WHT WHT TEMPO GRN
  • 180525Z 19004KT 9999 FEW008 SCT045 BKN070 16/16 Q1014 BLU BLU BECMG WHT
  • 180513Z 18004KT 9999 SCT045 BKN070 16/16 Q1014 BLU BLU BECMG WHT
  • 180455Z 19003KT 9999 SCT045 BKN070 16/16 Q1013 BLU BLU TEMPO WHT
  • 180446Z 20004KT 9999 SCT060 BKN180 16/15 Q1013 BLU BLU TEMPO WHT
  • 180425Z VRB01KT 9999 FEW060 BKN180 16/15 Q1013 BLU
  • 180355Z VRB02KT 9999 BKN060 16/15 Q1013 BLU

TAF TAF EBBE
Valide du 18 à 07h jusqu'au 18 à 16h UTC


180541Z 1807/1816 22012KT 9999 FEW010 SCT015 BKN030
TEMPO 1807/1811 4000 RA -SHRA SCT008 SCT012 BKN015
PROB30
TEMPO 1807/1810 23015G25KT 3000 SHRA SCT006 BKN012TCU
BECMG 1811/1813 9999 FEW020 SCT050
TEMPO 1811/1814 4500 -SHRA SCT018TCU
Pas de NOTAMs connus pour ce terrain.



MET'MAP, la Météo Aéronautique d'un coup d'oeil ! - Copyright ORBIFLY Décembre 2007 - Disclaimer

ORBIFLY MET'MAP TEAM :

Programmation & Développement : Alexandra Zaïnal
Conception & Développement : Baudouin d'Aumeries
Co-Programmation & Développement : Marc-Olivier Méhu
Soutien technique & logistique : Manuel Goepfert

Contact : metmap@orbifly.com




SOURCES & CREDITS :

   NOAA